createdAt,value
2019-03-08T00:00:35.141Z,1.67
2019-03-08T00:03:03.709Z,1.50
2019-03-08T00:05:32.080Z,1.13
2019-03-08T00:08:00.481Z,1.70
2019-03-08T00:10:28.923Z,1.40
2019-03-08T00:12:57.305Z,1.63
2019-03-08T00:15:25.683Z,1.52
2019-03-08T00:17:54.781Z,1.20
2019-03-08T00:20:23.161Z,1.60
2019-03-08T00:22:51.539Z,1.40
2019-03-08T00:25:19.984Z,1.55
2019-03-08T00:27:48.382Z,1.47
2019-03-08T00:30:16.886Z,1.43
2019-03-08T00:32:45.522Z,1.40
2019-03-08T00:35:13.962Z,1.37
2019-03-08T00:37:42.349Z,2.00
2019-03-08T00:40:12.857Z,1.40
2019-03-08T00:42:41.259Z,1.63
2019-03-08T00:45:16.954Z,1.37
2019-03-08T00:47:45.342Z,1.50
2019-03-08T00:50:14.148Z,1.50
2019-03-08T00:52:42.542Z,1.35
2019-03-08T00:55:11.946Z,1.17
2019-03-08T00:57:40.388Z,1.30
2019-03-08T01:00:15.582Z,1.40
2019-03-08T01:02:43.959Z,1.10
2019-03-08T01:05:13.087Z,1.83
2019-03-08T01:07:41.530Z,1.30
2019-03-08T01:10:12.982Z,1.20
2019-03-08T01:12:41.358Z,1.20
2019-03-08T01:15:12.783Z,1.43
2019-03-08T01:17:41.166Z,1.60
2019-03-08T01:20:12.090Z,1.30
2019-03-08T01:22:40.464Z,1.10
2019-03-08T01:25:09.184Z,1.17
2019-03-08T01:27:38.691Z,1.30
2019-03-08T01:30:10.128Z,1.23
2019-03-08T01:32:38.565Z,1.47
2019-03-08T01:35:07.688Z,1.63
2019-03-08T01:37:36.130Z,1.50
2019-03-08T01:40:07.658Z,1.20
2019-03-08T01:42:36.029Z,1.40
2019-03-08T01:45:07.051Z,0.93
2019-03-08T01:47:35.423Z,1.10
2019-03-08T01:50:05.970Z,1.37
2019-03-08T01:52:34.325Z,1.50
2019-03-08T01:55:02.959Z,1.20
2019-03-08T01:57:31.329Z,1.03
2019-03-08T01:59:59.713Z,1.13
2019-03-08T02:02:28.152Z,1.30
2019-03-08T02:04:56.705Z,0.90
2019-03-08T02:07:25.315Z,1.20
2019-03-08T02:09:53.982Z,1.12
2019-03-08T02:12:22.352Z,1.20
2019-03-08T02:14:50.740Z,1.30
2019-03-08T02:17:19.119Z,0.90
2019-03-08T02:19:47.503Z,1.00
2019-03-08T02:22:15.882Z,1.27
2019-03-08T02:24:44.346Z,1.33
2019-03-08T02:27:12.709Z,0.97
2019-03-08T02:29:41.087Z,1.60
2019-03-08T02:32:09.454Z,0.93
2019-03-08T02:34:37.830Z,1.00
2019-03-08T02:37:06.195Z,1.07
2019-03-08T02:39:34.918Z,1.30
2019-03-08T02:42:03.284Z,1.00
2019-03-08T02:44:31.646Z,1.13
2019-03-08T02:47:00.018Z,0.90
2019-03-08T02:49:28.388Z,1.20
2019-03-08T02:51:56.763Z,1.03
2019-03-08T02:54:25.305Z,1.07
2019-03-08T02:56:53.681Z,1.17
2019-03-08T02:59:22.045Z,1.03
2019-03-08T03:01:50.422Z,0.90
2019-03-08T03:04:18.786Z,1.20
2019-03-08T03:06:47.169Z,0.80
2019-03-08T03:09:15.710Z,0.97
2019-03-08T03:11:44.088Z,0.83
2019-03-08T03:14:12.479Z,1.30
2019-03-08T03:16:40.827Z,1.00
2019-03-08T03:19:09.263Z,1.10
2019-03-08T03:21:37.637Z,0.90
2019-03-08T03:24:06.074Z,1.20
2019-03-08T03:26:34.491Z,0.97
2019-03-08T03:29:02.821Z,0.90
2019-03-08T03:31:31.206Z,0.80
2019-03-08T03:33:59.570Z,1.20
2019-03-08T03:36:27.945Z,0.70
2019-03-08T03:38:56.824Z,1.10
2019-03-08T03:41:25.197Z,0.90
2019-03-08T03:43:53.561Z,1.20
2019-03-08T03:46:21.933Z,1.03
2019-03-08T03:48:50.303Z,1.10
2019-03-08T03:51:18.673Z,0.90
2019-03-08T03:53:47.213Z,0.97
2019-03-08T03:56:15.592Z,1.10
2019-03-08T03:58:43.958Z,1.10
2019-03-08T04:01:23.033Z,0.80
2019-03-08T04:03:51.398Z,1.07
2019-03-08T04:06:20.150Z,1.00
2019-03-08T04:08:48.516Z,1.00
2019-03-08T04:11:16.893Z,0.82
2019-03-08T04:13:45.256Z,0.77
2019-03-08T04:16:13.646Z,0.80
2019-03-08T04:18:42.011Z,1.00
2019-03-08T04:21:10.557Z,1.00
2019-03-08T04:23:39.896Z,0.80
2019-03-08T04:26:08.260Z,1.00
2019-03-08T04:28:36.631Z,1.00
2019-03-08T04:31:05.014Z,1.10
2019-03-08T04:33:33.390Z,1.60
2019-03-08T04:36:01.756Z,1.00
2019-03-08T04:38:30.129Z,0.93
2019-03-08T04:40:58.493Z,1.60
2019-03-08T04:43:26.869Z,0.97
2019-03-08T04:45:55.236Z,1.10
2019-03-08T04:48:23.612Z,1.00
2019-03-08T04:50:51.972Z,1.30
2019-03-08T04:53:20.347Z,1.17
2019-03-08T04:55:48.712Z,0.90
2019-03-08T04:58:17.093Z,1.00
2019-03-08T05:00:45.474Z,1.17
2019-03-08T05:03:13.849Z,1.10
2019-03-08T05:05:42.217Z,1.20
2019-03-08T05:08:10.595Z,1.30
2019-03-08T05:10:40.017Z,1.03
2019-03-08T05:13:08.393Z,1.20
2019-03-08T05:15:36.848Z,1.00
2019-03-08T05:18:05.296Z,1.17
2019-03-08T05:20:33.659Z,1.30
2019-03-08T05:23:02.040Z,0.97
2019-03-08T05:25:30.414Z,1.10
2019-03-08T05:27:58.781Z,1.10
2019-03-08T05:30:27.153Z,1.23
2019-03-08T05:32:55.532Z,1.07
2019-03-08T05:35:23.892Z,1.10
2019-03-08T05:37:52.458Z,1.00
2019-03-08T05:40:20.823Z,0.97
2019-03-08T05:42:49.221Z,1.10
2019-03-08T05:45:17.605Z,1.00
2019-03-08T05:47:45.969Z,1.27
2019-03-08T05:50:14.788Z,0.83
2019-03-08T05:52:43.436Z,1.00
2019-03-08T05:55:12.562Z,1.30
2019-03-08T05:57:40.932Z,1.10
2019-03-08T06:00:16.250Z,1.20
2019-03-08T06:02:44.624Z,0.90
2019-03-08T06:05:13.074Z,1.23
2019-03-08T06:07:41.443Z,1.45
2019-03-08T06:10:30.956Z,1.30
2019-03-08T06:13:00.456Z,1.43
2019-03-08T06:15:28.892Z,1.00
2019-03-08T06:17:57.431Z,1.50
2019-03-08T06:20:25.816Z,1.27
2019-03-08T06:22:55.173Z,1.27
2019-03-08T06:25:23.552Z,1.40
2019-03-08T06:27:51.919Z,1.10
2019-03-08T06:30:20.291Z,1.67
2019-03-08T06:32:48.934Z,1.57
2019-03-08T06:35:17.310Z,1.50
2019-03-08T06:37:45.677Z,1.40
2019-03-08T06:40:14.590Z,1.07
2019-03-08T06:42:42.955Z,1.60
2019-03-08T06:45:17.987Z,1.40
2019-03-08T06:47:46.631Z,1.10
2019-03-08T06:50:16.571Z,1.40
2019-03-08T06:52:44.939Z,1.50
2019-03-08T06:55:17.589Z,1.30
2019-03-08T06:57:45.949Z,1.43
2019-03-08T07:00:36.995Z,1.67
2019-03-08T07:03:07.232Z,1.60
2019-03-08T07:05:35.781Z,1.40
2019-03-08T07:08:04.519Z,1.67
2019-03-08T07:10:32.894Z,1.50
2019-03-08T07:13:03.476Z,1.30
2019-03-08T07:15:31.545Z,1.37
2019-03-08T07:17:59.930Z,1.40
2019-03-08T07:20:46.400Z,1.60
2019-03-08T07:23:28.133Z,1.27
2019-03-08T07:26:02.825Z,1.60
2019-03-08T07:28:48.896Z,1.70
2019-03-08T07:31:21.832Z,1.90
2019-03-08T07:34:00.619Z,1.57
2019-03-08T07:39:40.296Z,1.60
2019-03-08T07:42:10.386Z,1.70
2019-03-08T07:44:58.525Z,1.93
2019-03-08T07:47:37.555Z,2.00
2019-03-08T07:50:24.925Z,2.30
2019-03-08T07:53:06.654Z,1.60
2019-03-08T07:55:42.549Z,1.40
2019-03-08T07:58:21.998Z,1.60
2019-03-08T08:00:54.856Z,1.87
2019-03-08T08:03:24.867Z,1.50
2019-03-08T08:06:00.824Z,1.97
2019-03-08T08:08:33.506Z,1.92
2019-03-08T08:11:09.546Z,1.60
2019-03-08T08:13:39.556Z,1.93
2019-03-08T08:16:12.257Z,1.80
2019-03-08T08:18:48.817Z,2.40
2019-03-08T08:21:24.903Z,1.90
2019-03-08T08:24:00.401Z,1.60
2019-03-08T08:26:36.491Z,1.67
2019-03-08T08:29:12.303Z,1.57
2019-03-08T08:31:43.214Z,1.43
2019-03-08T08:34:18.953Z,2.13
2019-03-08T08:37:03.804Z,1.60
2019-03-08T08:39:42.475Z,1.57
2019-03-08T08:42:18.939Z,1.63
2019-03-08T08:44:53.080Z,1.30
2019-03-08T08:47:26.136Z,1.47
2019-03-08T08:50:01.736Z,2.00
2019-03-08T08:52:37.307Z,1.40
2019-03-08T08:55:27.564Z,1.63
2019-03-08T08:58:13.730Z,1.40
2019-03-08T09:00:52.945Z,1.60
2019-03-08T09:03:34.882Z,1.70
2019-03-08T09:06:05.261Z,1.47
2019-03-08T09:08:35.283Z,1.60
2019-03-08T09:11:17.414Z,1.30
2019-03-08T09:13:47.429Z,1.53
2019-03-08T09:16:32.893Z,1.50
2019-03-08T09:19:02.905Z,1.53
2019-03-08T09:21:48.973Z,1.57
2019-03-08T09:24:19.061Z,1.57
2019-03-08T09:27:07.060Z,1.40
2019-03-08T09:29:41.172Z,1.67
2019-03-08T09:32:08.811Z,1.77
2019-03-08T09:34:44.421Z,1.50
2019-03-08T09:37:14.429Z,1.50
2019-03-08T09:39:44.448Z,1.53
2019-03-08T09:42:30.876Z,1.50
2019-03-08T09:45:01.084Z,1.40
2019-03-08T09:47:47.067Z,1.40
2019-03-08T09:50:19.492Z,1.70
2019-03-08T09:55:43.816Z,1.67
2019-03-08T09:58:16.250Z,1.40
2019-03-08T10:00:49.229Z,1.60
2019-03-08T10:03:21.819Z,2.05
2019-03-08T10:05:57.989Z,1.63
2019-03-08T10:08:28.005Z,2.10
2019-03-08T10:11:00.670Z,1.43
2019-03-08T10:13:31.005Z,1.83
2019-03-08T10:16:01.013Z,1.40
2019-03-08T10:18:42.936Z,2.10
2019-03-08T10:21:22.537Z,1.67
2019-03-08T10:23:52.756Z,1.43
2019-03-08T10:26:25.417Z,1.90
2019-03-08T10:28:58.341Z,1.20
2019-03-08T10:31:31.078Z,2.20
2019-03-08T10:34:13.108Z,1.47
2019-03-08T10:36:48.831Z,1.50
2019-03-08T10:39:21.743Z,2.00
2019-03-08T10:41:54.359Z,1.80
2019-03-08T10:44:24.651Z,1.57
2019-03-08T10:46:54.737Z,1.50
2019-03-08T10:49:24.898Z,1.57
2019-03-08T10:52:17.656Z,2.08
2019-03-08T10:54:48.878Z,1.60
2019-03-08T10:57:27.837Z,1.47
2019-03-08T11:00:14.138Z,1.42
2019-03-08T11:03:00.885Z,1.97
2019-03-08T11:05:42.579Z,1.63
2019-03-08T11:08:15.357Z,1.57
2019-03-08T11:11:06.282Z,1.50
2019-03-08T11:13:42.827Z,1.43
2019-03-08T11:16:24.967Z,1.53
2019-03-08T11:19:08.547Z,1.67
2019-03-08T11:21:41.334Z,1.13
2019-03-08T11:24:11.353Z,1.53
2019-03-08T11:27:04.740Z,1.30
2019-03-08T11:29:42.377Z,1.70
2019-03-08T11:32:23.313Z,1.43
2019-03-08T11:35:01.734Z,1.72
2019-03-08T11:37:31.736Z,1.80
2019-03-08T11:40:17.931Z,2.12
2019-03-08T11:42:50.851Z,2.30
2019-03-08T11:45:20.862Z,1.67
2019-03-08T11:47:56.652Z,2.37
2019-03-08T11:50:29.617Z,2.33
2019-03-08T11:53:16.130Z,1.80
2019-03-08T11:55:48.790Z,2.10
2019-03-08T11:58:27.371Z,2.00
2019-03-08T12:01:00.496Z,1.70
2019-03-08T12:03:33.010Z,1.50
2019-03-08T12:06:05.679Z,1.87
2019-03-08T12:08:48.069Z,2.30
2019-03-08T12:11:33.424Z,1.70
2019-03-08T12:14:06.323Z,2.27
2019-03-08T12:16:52.764Z,1.90
2019-03-08T12:19:39.236Z,1.97
2019-03-08T12:22:14.871Z,1.50
2019-03-08T12:24:54.108Z,1.77
2019-03-08T12:27:24.136Z,1.90
2019-03-08T12:29:54.142Z,1.80
2019-03-08T12:32:42.422Z,1.37
2019-03-08T12:35:15.625Z,2.00
2019-03-08T12:37:51.382Z,1.50
2019-03-08T12:40:30.788Z,1.87
2019-03-08T12:43:07.558Z,1.80
2019-03-08T12:45:38.666Z,1.90
2019-03-08T12:48:24.832Z,1.67
2019-03-08T12:50:57.548Z,1.40
2019-03-08T12:53:27.635Z,2.12
2019-03-08T12:56:09.760Z,1.40
2019-03-08T12:58:55.082Z,1.67
2019-03-08T13:01:25.231Z,2.23
2019-03-08T13:03:55.237Z,2.00
2019-03-08T13:06:37.262Z,1.98
2019-03-08T13:09:26.352Z,1.83
2019-03-08T13:11:54.726Z,1.80
2019-03-08T13:14:23.168Z,2.10
2019-03-08T13:16:51.612Z,2.60
2019-03-08T13:19:19.982Z,1.60
2019-03-08T13:21:48.618Z,2.30
2019-03-08T13:24:17.129Z,2.00
2019-03-08T13:26:45.497Z,1.90
2019-03-08T13:29:13.877Z,1.40
2019-03-08T13:31:42.245Z,1.93
2019-03-08T13:34:10.693Z,1.97
2019-03-08T13:36:39.188Z,1.97
2019-03-08T13:39:08.205Z,1.80
2019-03-08T13:41:36.567Z,1.60
2019-03-08T13:44:05.256Z,1.90
2019-03-08T13:46:33.621Z,1.67
2019-03-08T13:49:01.996Z,1.87
2019-03-08T13:51:30.456Z,1.82
2019-03-08T13:53:58.912Z,1.60
2019-03-08T13:56:27.345Z,1.57
2019-03-08T13:58:55.740Z,1.33
2019-03-08T14:01:24.108Z,1.50
2019-03-08T14:03:52.490Z,1.67
2019-03-08T14:06:20.877Z,1.43
2019-03-08T14:08:49.428Z,1.97
2019-03-08T14:11:17.794Z,1.63
2019-03-08T14:13:46.171Z,1.57
2019-03-08T14:16:14.551Z,1.90
2019-03-08T14:18:42.928Z,1.60
2019-03-08T14:21:11.429Z,1.80
2019-03-08T14:23:39.846Z,1.53
2019-03-08T14:26:08.216Z,1.63
2019-03-08T14:28:36.590Z,5.70
2019-03-08T14:31:15.323Z,8.50
2019-03-08T14:33:44.293Z,9.05
2019-03-08T14:36:12.854Z,5.63
2019-03-08T14:38:41.228Z,5.20
2019-03-08T14:41:14.514Z,4.53
2019-03-08T14:43:49.008Z,4.73
2019-03-08T14:46:35.358Z,7.40
2019-03-08T14:49:03.735Z,6.67
2019-03-08T14:51:32.096Z,6.87
2019-03-08T14:54:00.552Z,5.37
2019-03-08T14:56:31.775Z,4.75
2019-03-08T14:58:59.516Z,4.75
2019-03-08T15:01:27.888Z,4.77
2019-03-08T15:03:56.791Z,4.50
2019-03-08T15:06:28.080Z,4.20
2019-03-08T15:08:56.339Z,3.97
2019-03-08T15:11:24.959Z,4.95
2019-03-08T15:13:57.953Z,3.77
2019-03-08T15:16:23.816Z,3.65
2019-03-08T15:18:53.086Z,3.10
2019-03-08T15:21:21.465Z,3.20
2019-03-08T15:23:50.935Z,3.17
2019-03-08T15:26:20.229Z,4.70
2019-03-08T15:28:48.861Z,3.80
2019-03-08T15:31:17.253Z,5.27
2019-03-08T15:33:45.629Z,3.90
2019-03-08T15:36:14.884Z,4.22
2019-03-08T15:38:43.531Z,2.90
2019-03-08T15:41:12.051Z,3.10
2019-03-08T15:43:40.489Z,2.67
2019-03-08T15:46:08.929Z,3.10
2019-03-08T15:48:37.371Z,3.53
2019-03-08T15:51:05.844Z,3.00
2019-03-08T15:53:34.191Z,3.40
2019-03-08T15:56:02.696Z,3.40
2019-03-08T15:58:31.134Z,3.20
2019-03-08T16:00:59.578Z,3.60
2019-03-08T16:03:30.101Z,3.70
2019-03-08T16:05:58.065Z,3.93
2019-03-08T16:08:26.440Z,2.90
2019-03-08T16:10:54.802Z,2.70
2019-03-08T16:13:23.239Z,3.00
2019-03-08T16:15:51.614Z,2.80
2019-03-08T16:18:19.985Z,2.87
2019-03-08T16:20:48.496Z,2.30
2019-03-08T16:23:16.944Z,2.87
2019-03-08T16:25:47.949Z,3.07
2019-03-08T16:28:15.415Z,2.87
2019-03-08T16:30:47.463Z,3.60
2019-03-08T16:33:19.878Z,2.60
2019-03-08T16:36:06.339Z,2.80
2019-03-08T16:38:45.188Z,3.10
2019-03-08T16:41:29.744Z,2.80
2019-03-08T16:44:11.046Z,3.20
2019-03-08T16:46:40.826Z,3.20
2019-03-08T16:49:10.697Z,3.00
2019-03-08T16:51:56.869Z,2.70
2019-03-08T16:54:26.839Z,2.20
2019-03-08T16:56:59.846Z,3.47
2019-03-08T16:59:39.037Z,3.40
2019-03-08T17:02:09.180Z,2.80
2019-03-08T17:04:39.197Z,3.57
2019-03-08T17:07:21.420Z,3.10
2019-03-08T17:09:57.346Z,2.80
2019-03-08T17:12:33.082Z,2.13
2019-03-08T17:15:19.750Z,2.37
2019-03-08T17:18:01.919Z,2.43
2019-03-08T17:20:32.000Z,2.63
2019-03-08T17:23:02.136Z,2.23
2019-03-08T17:25:32.144Z,2.50
2019-03-08T17:28:02.234Z,2.20
2019-03-08T17:30:35.005Z,2.33
2019-03-08T17:33:11.320Z,2.20
2019-03-08T17:35:44.423Z,2.37
2019-03-08T17:38:17.689Z,2.37
2019-03-08T17:41:03.742Z,2.40
2019-03-08T17:43:36.205Z,2.35
2019-03-08T17:46:06.358Z,2.57
2019-03-08T17:48:36.379Z,2.10
2019-03-08T17:51:06.474Z,1.90
2019-03-08T17:53:39.490Z,1.90
2019-03-08T17:56:12.258Z,1.90
2019-03-08T17:58:44.954Z,2.00
2019-03-08T18:01:14.968Z,1.97
2019-03-08T18:03:48.079Z,2.30
2019-03-08T18:06:34.343Z,2.40
2019-03-08T18:09:22.769Z,1.65
2019-03-08T18:11:55.463Z,1.63
2019-03-08T18:14:37.401Z,1.57
2019-03-08T18:17:13.285Z,2.23
2019-03-08T18:22:21.267Z,1.93
2019-03-08T18:25:07.718Z,2.40
2019-03-08T18:27:37.718Z,1.77
2019-03-08T18:30:11.159Z,1.77
2019-03-08T18:32:44.164Z,1.80
2019-03-08T18:35:23.179Z,1.83
2019-03-08T18:38:09.887Z,1.60
2019-03-08T18:40:39.912Z,2.07
2019-03-08T18:43:25.012Z,2.00
2019-03-08T18:45:55.031Z,1.60
2019-03-08T18:48:25.034Z,2.00
2019-03-08T18:51:04.285Z,2.07
2019-03-08T18:53:34.396Z,1.83
2019-03-08T18:56:04.478Z,1.70
2019-03-08T18:58:34.579Z,2.87
2019-03-08T19:01:07.711Z,1.90
2019-03-08T19:06:30.588Z,3.13
2019-03-08T19:09:00.754Z,3.25
2019-03-08T19:11:30.764Z,3.33
2019-03-08T19:14:16.753Z,2.62
2019-03-08T19:16:52.844Z,3.50
2019-03-08T19:19:38.746Z,3.00
2019-03-08T19:22:26.399Z,3.60
2019-03-08T19:24:52.560Z,25.40
2019-03-08T19:27:23.550Z,25.60
2019-03-08T19:30:09.731Z,29.30
2019-03-08T19:32:42.533Z,28.63
2019-03-08T19:35:30.499Z,24.87
2019-03-08T19:38:15.310Z,22.35
2019-03-08T19:40:51.356Z,20.97
2019-03-08T19:43:27.110Z,20.27
2019-03-08T19:45:59.603Z,19.40
2019-03-08T19:48:41.274Z,17.80
2019-03-08T19:51:11.853Z,18.93
2019-03-08T19:53:48.096Z,15.90
2019-03-08T19:56:21.467Z,14.60
2019-03-08T19:58:51.577Z,15.20
2019-03-08T20:01:27.410Z,13.33
2019-03-08T20:07:05.185Z,13.80
2019-03-08T20:09:37.695Z,12.67
2019-03-08T20:14:52.109Z,11.93
2019-03-08T20:17:38.552Z,11.67
2019-03-08T20:20:20.022Z,10.67
2019-03-08T20:23:06.347Z,11.00
2019-03-08T20:25:36.398Z,10.67
2019-03-08T20:28:06.412Z,9.67
2019-03-08T20:30:39.288Z,10.93
2019-03-08T20:33:15.321Z,9.73
2019-03-08T20:35:45.342Z,9.90
2019-03-08T20:41:20.970Z,9.50
2019-03-08T20:43:51.039Z,9.70
2019-03-08T20:46:32.950Z,9.73
2019-03-08T20:49:01.394Z,9.15
2019-03-08T20:51:29.784Z,8.95
2019-03-08T20:53:58.162Z,9.03
2019-03-08T20:56:26.702Z,9.17
2019-03-08T20:58:55.118Z,9.50
2019-03-08T21:01:23.777Z,8.95
2019-03-08T21:03:52.148Z,8.15
2019-03-08T21:06:20.528Z,9.10
2019-03-08T21:08:48.894Z,9.23
2019-03-08T21:11:17.417Z,9.27
2019-03-08T21:13:45.786Z,8.67
2019-03-08T21:16:14.186Z,8.80
2019-03-08T21:18:42.569Z,7.90
2019-03-08T21:21:10.971Z,7.83
2019-03-08T21:23:39.352Z,8.00
2019-03-08T21:26:07.713Z,7.50
2019-03-08T21:28:36.101Z,6.80
2019-03-08T21:31:04.625Z,7.90
2019-03-08T21:33:33.017Z,8.08
2019-03-08T21:36:01.388Z,7.65
2019-03-08T21:38:29.770Z,6.90
2019-03-08T21:40:58.142Z,6.65
2019-03-08T21:43:26.697Z,7.20
2019-03-08T21:45:55.073Z,7.00
2019-03-08T21:48:23.449Z,6.87
2019-03-08T21:50:51.992Z,7.10
2019-03-08T21:53:20.375Z,7.03
2019-03-08T21:55:48.918Z,5.83
2019-03-08T21:58:17.950Z,6.57
2019-03-08T22:00:46.348Z,7.33
2019-03-08T22:03:14.888Z,6.33
2019-03-08T22:05:43.260Z,6.03
2019-03-08T22:08:17.216Z,6.07
2019-03-08T22:10:43.365Z,5.60
2019-03-08T22:13:11.822Z,6.20
2019-03-08T22:15:40.269Z,6.13
2019-03-08T22:18:08.651Z,5.63
2019-03-08T22:20:37.021Z,5.97
2019-03-08T22:23:06.010Z,5.47
2019-03-08T22:25:34.391Z,5.50
2019-03-08T22:28:02.838Z,5.70
2019-03-08T22:30:31.203Z,5.13
2019-03-08T22:32:59.584Z,4.85
2019-03-08T22:35:27.963Z,6.50
2019-03-08T22:37:56.343Z,5.70
2019-03-08T22:40:24.714Z,5.00
2019-03-08T22:42:53.081Z,4.80
2019-03-08T22:45:21.469Z,5.40
2019-03-08T22:47:49.839Z,6.40
2019-03-08T22:50:18.390Z,5.37
2019-03-08T22:52:46.758Z,5.20
2019-03-08T22:55:16.071Z,5.30
2019-03-08T22:57:44.437Z,4.90
2019-03-08T23:00:59.353Z,4.50
2019-03-08T23:03:28.864Z,5.03
2019-03-08T23:05:57.306Z,5.03
2019-03-08T23:08:25.680Z,5.73
2019-03-08T23:10:54.058Z,4.67
2019-03-08T23:13:23.086Z,4.57
2019-03-08T23:15:51.462Z,4.63
2019-03-08T23:18:19.830Z,5.07
2019-03-08T23:20:48.371Z,5.10
2019-03-08T23:23:16.817Z,5.00
2019-03-08T23:25:45.214Z,6.10
2019-03-08T23:28:31.594Z,5.20
2019-03-08T23:31:01.615Z,5.83
2019-03-08T23:33:29.988Z,5.45
2019-03-08T23:35:58.362Z,4.67
2019-03-08T23:38:26.728Z,4.42
2019-03-08T23:40:55.109Z,4.20
2019-03-08T23:43:23.478Z,4.47
2019-03-08T23:45:52.305Z,4.27
2019-03-08T23:48:20.669Z,5.10
2019-03-08T23:50:49.517Z,4.27
2019-03-08T23:53:18.574Z,4.03
2019-03-08T23:55:46.950Z,4.37
2019-03-08T23:58:15.335Z,4.67
